sensor_id;sensor_type;location;lat;lon;timestamp;pressure;altitude;pressure_sealevel;temperature;humidity
31357;BME280;60001;48.404;11.738;2023-03-25T00:00:14;95751.34;;;9.84;71.14
31357;BME280;60001;48.404;11.738;2023-03-25T00:01:47;95757.13;;;9.76;71.40
31357;BME280;60001;48.404;11.738;2023-03-25T00:03:19;95762.66;;;9.80;71.22
31357;BME280;60001;48.404;11.738;2023-03-25T00:04:53;95752.63;;;9.72;71.36
31357;BME280;60001;48.404;11.738;2023-03-25T00:06:25;95749.47;;;9.70;71.63
31357;BME280;60001;48.404;11.738;2023-03-25T00:07:57;95757.63;;;9.68;71.41
31357;BME280;60001;48.404;11.738;2023-03-25T00:09:29;95755.53;;;9.70;71.53
31357;BME280;60001;48.404;11.738;2023-03-25T00:11:03;95751.59;;;9.68;71.62
31357;BME280;60001;48.404;11.738;2023-03-25T00:12:37;95746.81;;;9.65;71.15
31357;BME280;60001;48.404;11.738;2023-03-25T00:14:09;95750.00;;;9.67;71.53
31357;BME280;60001;48.404;11.738;2023-03-25T00:15:43;95746.03;;;9.64;71.71
31357;BME280;60001;48.404;11.738;2023-03-25T00:17:15;95743.66;;;9.63;71.97
31357;BME280;60001;48.404;11.738;2023-03-25T00:18:47;95741.53;;;9.65;71.68
31357;BME280;60001;48.404;11.738;2023-03-25T00:20:19;95743.66;;;9.63;71.87
31357;BME280;60001;48.404;11.738;2023-03-25T00:21:50;95744.41;;;9.58;71.88
31357;BME280;60001;48.404;11.738;2023-03-25T00:23:25;95751.81;;;9.61;71.77
31357;BME280;60001;48.404;11.738;2023-03-25T00:24:57;95750.50;;;9.64;71.79
31357;BME280;60001;48.404;11.738;2023-03-25T00:26:29;95749.44;;;9.65;71.97
31357;BME280;60001;48.404;11.738;2023-03-25T00:28:01;95743.13;;;9.66;71.64
31357;BME280;60001;48.404;11.738;2023-03-25T00:29:32;95746.53;;;9.66;71.77
31357;BME280;60001;48.404;11.738;2023-03-25T00:31:09;95747.38;;;9.67;71.46
31357;BME280;60001;48.404;11.738;2023-03-25T00:32:43;95739.19;;;9.68;71.73
31357;BME280;60001;48.404;11.738;2023-03-25T00:34:19;95740.78;;;9.69;71.71
31357;BME280;60001;48.404;11.738;2023-03-25T00:35:51;95746.31;;;9.68;71.77
31357;BME280;60001;48.404;11.738;2023-03-25T00:37:28;95750.53;;;9.69;71.41
31357;BME280;60001;48.404;11.738;2023-03-25T00:39:00;95750.25;;;9.70;71.63
31357;BME280;60001;48.404;11.738;2023-03-25T00:40:31;95742.88;;;9.67;71.25
31357;BME280;60001;48.404;11.738;2023-03-25T00:42:04;95744.72;;;9.72;71.17
31357;BME280;60001;48.404;11.738;2023-03-25T00:43:36;95744.19;;;9.70;70.89
31357;BME280;60001;48.404;11.738;2023-03-25T00:45:11;95737.31;;;9.64;70.98
31357;BME280;60001;48.404;11.738;2023-03-25T00:46:47;95748.41;;;9.71;70.96
31357;BME280;60001;48.404;11.738;2023-03-25T00:48:19;95745.22;;;9.64;71.13
31357;BME280;60001;48.404;11.738;2023-03-25T00:49:50;95746.81;;;9.65;71.29
31357;BME280;60001;48.404;11.738;2023-03-25T00:51:23;95744.16;;;9.59;71.16
31357;BME280;60001;48.404;11.738;2023-03-25T00:52:55;95743.34;;;9.59;71.30
31357;BME280;60001;48.404;11.738;2023-03-25T00:54:27;95753.63;;;9.55;71.02
31357;BME280;60001;48.404;11.738;2023-03-25T00:55:57;95743.34;;;9.59;70.63
31357;BME280;60001;48.404;11.738;2023-03-25T00:57:30;95751.78;;;9.56;71.31
31357;BME280;60001;48.404;11.738;2023-03-25T00:59:02;95744.94;;;9.55;71.07
31357;BME280;60001;48.404;11.738;2023-03-25T01:00:34;95744.94;;;9.55;71.19
31357;BME280;60001;48.404;11.738;2023-03-25T01:02:08;95751.50;;;9.52;70.93
31357;BME280;60001;48.404;11.738;2023-03-25T01:03:40;95753.13;;;9.53;71.38
31357;BME280;60001;48.404;11.738;2023-03-25T01:05:13;95750.22;;;9.55;70.79
31357;BME280;60001;48.404;11.738;2023-03-25T01:06:44;95744.69;;;9.56;70.90
31357;BME280;60001;48.404;11.738;2023-03-25T01:08:16;95743.34;;;9.59;70.89
31357;BME280;60001;48.404;11.738;2023-03-25T01:09:47;95741.50;;;9.59;70.72
31357;BME280;60001;48.404;11.738;2023-03-25T01:11:21;95740.22;;;9.62;70.72
31357;BME280;60001;48.404;11.738;2023-03-25T01:12:52;95738.13;;;9.64;70.52
31357;BME280;60001;48.404;11.738;2023-03-25T01:14:24;95734.19;;;9.67;70.56
31357;BME280;60001;48.404;11.738;2023-03-25T01:15:57;95733.13;;;9.68;70.02
31357;BME280;60001;48.404;11.738;2023-03-25T01:17:29;95731.53;;;9.67;70.35
31357;BME280;60001;48.404;11.738;2023-03-25T01:19:00;95727.84;;;9.68;70.20
31357;BME280;60001;48.404;11.738;2023-03-25T01:20:32;95725.47;;;9.66;70.18
31357;BME280;60001;48.404;11.738;2023-03-25T01:22:05;95725.22;;;9.68;70.14
31357;BME280;60001;48.404;11.738;2023-03-25T01:23:37;95726.53;;;9.70;69.88
31357;BME280;60001;48.404;11.738;2023-03-25T01:25:09;95723.91;;;9.70;70.11
31357;BME280;60001;48.404;11.738;2023-03-25T01:26:41;95722.31;;;9.69;70.12
31357;BME280;60001;48.404;11.738;2023-03-25T01:28:15;95730.50;;;9.68;70.28
31357;BME280;60001;48.404;11.738;2023-03-25T01:29:46;95728.34;;;9.54;69.96
31357;BME280;60001;48.404;11.738;2023-03-25T01:31:17;95731.78;;;9.60;69.94
31357;BME280;60001;48.404;11.738;2023-03-25T01:32:50;95727.03;;;9.62;69.97
31357;BME280;60001;48.404;11.738;2023-03-25T01:34:22;95724.66;;;9.60;69.65
31357;BME280;60001;48.404;11.738;2023-03-25T01:35:54;95716.50;;;9.62;70.00
31357;BME280;60001;48.404;11.738;2023-03-25T01:37:26;95715.72;;;9.61;69.98
31357;BME280;60001;48.404;11.738;2023-03-25T01:38:59;95721.25;;;9.65;69.87
31357;BME280;60001;48.404;11.738;2023-03-25T01:40:30;95719.94;;;9.68;69.91
31357;BME280;60001;48.404;11.738;2023-03-25T01:42:02;95713.63;;;9.69;70.19
31357;BME280;60001;48.404;11.738;2023-03-25T01:43:35;95716.22;;;9.58;69.67
31357;BME280;60001;48.404;11.738;2023-03-25T01:45:16;95706.75;;;9.63;69.82
31357;BME280;60001;48.404;11.738;2023-03-25T01:46:51;95705.41;;;9.65;69.96
31357;BME280;60001;48.404;11.738;2023-03-25T01:48:28;95697.00;;;9.68;70.22
31357;BME280;60001;48.404;11.738;2023-03-25T01:50:05;95686.19;;;9.65;70.08
31357;BME280;60001;48.404;11.738;2023-03-25T01:51:44;95695.44;;;9.67;69.94
31357;BME280;60001;48.404;11.738;2023-03-25T01:53:16;95692.00;;;9.67;70.21
31357;BME280;60001;48.404;11.738;2023-03-25T01:54:51;95675.88;;;9.48;69.98
31357;BME280;60001;48.404;11.738;2023-03-25T01:56:26;95686.44;;;9.58;69.87
31357;BME280;60001;48.404;11.738;2023-03-25T01:58:05;95697.53;;;9.60;69.59
31357;BME280;60001;48.404;11.738;2023-03-25T01:59:41;95697.22;;;9.56;69.98
31357;BME280;60001;48.404;11.738;2023-03-25T02:01:14;95697.75;;;9.58;69.87
31357;BME280;60001;48.404;11.738;2023-03-25T02:02:48;95692.50;;;9.53;70.06
31357;BME280;60001;48.404;11.738;2023-03-25T02:04:30;95691.97;;;9.56;70.01
31357;BME280;60001;48.404;11.738;2023-03-25T02:06:15;95691.69;;;9.58;70.04
31357;BME280;60001;48.404;11.738;2023-03-25T02:07:48;95692.75;;;9.57;70.34
31357;BME280;60001;48.404;11.738;2023-03-25T02:09:24;95690.41;;;9.60;69.98
31357;BME280;60001;48.404;11.738;2023-03-25T02:10:57;95682.44;;;9.50;69.77
31357;BME280;60001;48.404;11.738;2023-03-25T02:12:29;95687.75;;;9.55;69.83
31357;BME280;60001;48.404;11.738;2023-03-25T02:14:10;95677.22;;;9.60;69.78
31357;BME280;60001;48.404;11.738;2023-03-25T02:15:55;95676.66;;;9.58;69.32
31357;BME280;60001;48.404;11.738;2023-03-25T02:17:41;95684.88;;;9.62;69.46
31357;BME280;60001;48.404;11.738;2023-03-25T02:25:39;95679.84;;;9.66;68.59
31357;BME280;60001;48.404;11.738;2023-03-25T02:27:23;95668.78;;;9.64;68.77
31357;BME280;60001;48.404;11.738;2023-03-25T02:29:10;95671.97;;;9.71;68.77
31357;BME280;60001;48.404;11.738;2023-03-25T02:31:05;95675.91;;;9.63;68.67
31357;BME280;60001;48.404;11.738;2023-03-25T02:33:14;95676.97;;;9.67;68.68
31357;BME280;60001;48.404;11.738;2023-03-25T02:35:08;95676.16;;;9.56;68.18
31357;BME280;60001;48.404;11.738;2023-03-25T02:37:11;95681.97;;;9.64;68.49
31357;BME280;60001;48.404;11.738;2023-03-25T02:38:53;95681.72;;;9.60;68.19
31357;BME280;60001;48.404;11.738;2023-03-25T02:40:35;95674.03;;;9.58;68.11
31357;BME280;60001;48.404;11.738;2023-03-25T02:42:19;95672.75;;;9.61;68.02
31357;BME280;60001;48.404;11.738;2023-03-25T02:44:01;95665.88;;;9.65;67.85
31357;BME280;60001;48.404;11.738;2023-03-25T02:45:40;95664.56;;;9.63;67.80
31357;BME280;60001;48.404;11.738;2023-03-25T02:47:18;95663.25;;;9.60;67.75
31357;BME280;60001;48.404;11.738;2023-03-25T02:48:57;95653.25;;;9.62;68.00
31357;BME280;60001;48.404;11.738;2023-03-25T02:50:35;95656.66;;;9.63;67.97
31357;BME280;60001;48.404;11.738;2023-03-25T02:52:14;95657.97;;;9.55;67.93
31357;BME280;60001;48.404;11.738;2023-03-25T02:53:51;95658.47;;;9.52;68.35
31357;BME280;60001;48.404;11.738;2023-03-25T02:55:26;95670.63;;;9.53;68.30
31357;BME280;60001;48.404;11.738;2023-03-25T02:57:00;95671.41;;;9.53;68.32
31357;BME280;60001;48.404;11.738;2023-03-25T02:58:31;95674.28;;;9.47;68.27
31357;BME280;60001;48.404;11.738;2023-03-25T03:00:06;95669.53;;;9.49;68.21
31357;BME280;60001;48.404;11.738;2023-03-25T03:01:45;95675.09;;;9.47;68.79
31357;BME280;60001;48.404;11.738;2023-03-25T03:03:19;95679.56;;;9.52;68.44
31357;BME280;60001;48.404;11.738;2023-03-25T03:04:53;95675.09;;;9.57;68.45
31357;BME280;60001;48.404;11.738;2023-03-25T03:06:27;95679.88;;;9.60;68.63
31357;BME280;60001;48.404;11.738;2023-03-25T03:08:13;95680.88;;;9.59;68.51
31357;BME280;60001;48.404;11.738;2023-03-25T03:09:59;95676.44;;;9.60;67.99
31357;BME280;60001;48.404;11.738;2023-03-25T03:11:42;95683.81;;;9.63;68.01
31357;BME280;60001;48.404;11.738;2023-03-25T03:13:23;95683.03;;;9.63;68.16
31357;BME280;60001;48.404;11.738;2023-03-25T03:15:11;95688.78;;;9.59;68.25
31357;BME280;60001;48.404;11.738;2023-03-25T03:16:50;95678.53;;;9.63;68.34
31357;BME280;60001;48.404;11.738;2023-03-25T03:18:43;95687.78;;;9.60;68.09
31357;BME280;60001;48.404;11.738;2023-03-25T03:20:24;95684.06;;;9.61;68.24
31357;BME280;60001;48.404;11.738;2023-03-25T03:22:12;95685.91;;;9.66;68.10
31357;BME280;60001;48.404;11.738;2023-03-25T03:23:55;95686.19;;;9.65;68.01
31357;BME280;60001;48.404;11.738;2023-03-25T03:25:35;95685.13;;;9.66;68.01
31357;BME280;60001;48.404;11.738;2023-03-25T03:27:14;95688.81;;;9.65;68.02
31357;BME280;60001;48.404;11.738;2023-03-25T03:29:01;95674.34;;;9.67;67.79
31357;BME280;60001;48.404;11.738;2023-03-25T03:30:41;95675.38;;;9.66;67.71
31357;BME280;60001;48.404;11.738;2023-03-25T03:32:21;95670.38;;;9.65;67.73
31357;BME280;60001;48.404;11.738;2023-03-25T03:34:03;95679.84;;;9.66;67.61
31357;BME280;60001;48.404;11.738;2023-03-25T03:35:44;95677.22;;;9.66;67.49
31357;BME280;60001;48.404;11.738;2023-03-25T03:37:24;95681.19;;;9.63;67.52
31357;BME280;60001;48.404;11.738;2023-03-25T03:39:03;95684.59;;;9.58;67.58
31357;BME280;60001;48.404;11.738;2023-03-25T03:40:44;95690.91;;;9.57;67.62
31357;BME280;60001;48.404;11.738;2023-03-25T03:42:24;95692.72;;;9.52;67.67
31357;BME280;60001;48.404;11.738;2023-03-25T03:44:03;95691.72;;;9.53;67.79
31357;BME280;60001;48.404;11.738;2023-03-25T03:45:41;95688.53;;;9.51;67.83
31357;BME280;60001;48.404;11.738;2023-03-25T03:47:20;95694.59;;;9.56;68.30
31357;BME280;60001;48.404;11.738;2023-03-25T03:48:55;95694.59;;;9.56;67.89
31357;BME280;60001;48.404;11.738;2023-03-25T03:50:32;95693.03;;;9.55;68.14
31357;BME280;60001;48.404;11.738;2023-03-25T03:52:11;95696.44;;;9.46;68.18
31357;BME280;60001;48.404;11.738;2023-03-25T03:53:50;95691.94;;;9.46;68.00
31357;BME280;60001;48.404;11.738;2023-03-25T03:55:27;95684.56;;;9.48;67.98
31357;BME280;60001;48.404;11.738;2023-03-25T03:57:06;95698.81;;;9.47;67.89
31357;BME280;60001;48.404;11.738;2023-03-25T03:58:41;95682.94;;;9.32;67.65
31357;BME280;60001;48.404;11.738;2023-03-25T04:00:18;95693.97;;;9.29;67.43
31357;BME280;60001;48.404;11.738;2023-03-25T04:01:58;95692.94;;;9.30;67.97
31357;BME280;60001;48.404;11.738;2023-03-25T04:03:35;95692.41;;;9.28;68.09
31357;BME280;60001;48.404;11.738;2023-03-25T04:05:13;95693.94;;;9.24;67.99
31357;BME280;60001;48.404;11.738;2023-03-25T04:06:50;95693.16;;;9.18;67.62
31357;BME280;60001;48.404;11.738;2023-03-25T04:08:37;95695.78;;;9.18;68.18
31357;BME280;60001;48.404;11.738;2023-03-25T04:10:17;95691.25;;;9.09;67.78
31357;BME280;60001;48.404;11.738;2023-03-25T04:11:56;95696.53;;;9.09;68.03
31357;BME280;60001;48.404;11.738;2023-03-25T04:13:35;95697.06;;;9.05;67.82
31357;BME280;60001;48.404;11.738;2023-03-25T04:15:08;95695.97;;;9.01;67.88
31357;BME280;60001;48.404;11.738;2023-03-25T04:16:40;95695.69;;;9.03;67.77
31357;BME280;60001;48.404;11.738;2023-03-25T04:18:15;95678.84;;;8.99;67.81
31357;BME280;60001;48.404;11.738;2023-03-25T04:19:47;95693.84;;;8.98;67.93
31357;BME280;60001;48.404;11.738;2023-03-25T04:21:23;95699.63;;;8.95;68.42
31357;BME280;60001;48.404;11.738;2023-03-25T04:22:55;95696.16;;;8.90;68.43
31357;BME280;60001;48.404;11.738;2023-03-25T04:24:25;95699.63;;;8.90;68.25
31357;BME280;60001;48.404;11.738;2023-03-25T04:26:00;95699.06;;;8.88;68.52
31357;BME280;60001;48.404;11.738;2023-03-25T04:27:33;95701.94;;;8.87;68.69
31357;BME280;60001;48.404;11.738;2023-03-25T04:29:08;95703.50;;;8.83;68.65
31357;BME280;60001;48.404;11.738;2023-03-25T04:30:43;95711.16;;;8.84;68.53
31357;BME280;60001;48.404;11.738;2023-03-25T04:32:15;95710.59;;;8.82;68.48
31357;BME280;60001;48.404;11.738;2023-03-25T04:33:47;95704.81;;;8.80;68.87
31357;BME280;60001;48.404;11.738;2023-03-25T04:35:20;95706.66;;;8.79;68.74
31357;BME280;60001;48.404;11.738;2023-03-25T04:36:52;95713.22;;;8.82;68.50
31357;BME280;60001;48.404;11.738;2023-03-25T04:38:24;95713.00;;;8.84;68.42
31357;BME280;60001;48.404;11.738;2023-03-25T04:39:56;95719.28;;;8.83;68.05
31357;BME280;60001;48.404;11.738;2023-03-25T04:41:30;95714.03;;;8.83;68.24
31357;BME280;60001;48.404;11.738;2023-03-25T04:43:02;95724.56;;;8.83;68.41
31357;BME280;60001;48.404;11.738;2023-03-25T04:44:36;95717.75;;;8.87;68.15
31357;BME280;60001;48.404;11.738;2023-03-25T04:46:12;95715.41;;;8.90;67.91
31357;BME280;60001;48.404;11.738;2023-03-25T04:47:47;95709.06;;;8.86;67.91
31357;BME280;60001;48.404;11.738;2023-03-25T04:49:23;95719.84;;;8.90;68.09
31357;BME280;60001;48.404;11.738;2023-03-25T04:50:55;95712.50;;;8.92;67.89
31357;BME280;60001;48.404;11.738;2023-03-25T04:52:27;95708.75;;;8.83;67.99
31357;BME280;60001;48.404;11.738;2023-03-25T04:54:01;95711.69;;;8.86;68.21
31357;BME280;60001;48.404;11.738;2023-03-25T04:55:33;95714.59;;;8.90;67.80
31357;BME280;60001;48.404;11.738;2023-03-25T04:57:04;95713.03;;;8.94;68.14
31357;BME280;60001;48.404;11.738;2023-03-25T04:58:38;95722.03;;;8.98;68.34
31357;BME280;60001;48.404;11.738;2023-03-25T05:00:15;95717.56;;;8.98;68.08
31357;BME280;60001;48.404;11.738;2023-03-25T05:01:48;95720.72;;;9.00;68.15
31357;BME280;60001;48.404;11.738;2023-03-25T05:03:20;95714.41;;;9.01;68.31
31357;BME280;60001;48.404;11.738;2023-03-25T05:04:53;95718.63;;;9.02;68.14
31357;BME280;60001;48.404;11.738;2023-03-25T05:06:31;95717.56;;;9.03;68.10
31357;BME280;60001;48.404;11.738;2023-03-25T05:08:03;95715.97;;;8.97;67.69
31357;BME280;60001;48.404;11.738;2023-03-25T05:09:35;95706.47;;;8.96;67.72
31357;BME280;60001;48.404;11.738;2023-03-25T05:11:06;95702.53;;;8.99;67.22
31357;BME280;60001;48.404;11.738;2023-03-25T05:12:37;95696.50;;;8.98;67.42
31357;BME280;60001;48.404;11.738;2023-03-25T05:14:12;95703.03;;;8.96;67.18
31357;BME280;60001;48.404;11.738;2023-03-25T05:15:46;95700.97;;;8.98;67.59
31357;BME280;60001;48.404;11.738;2023-03-25T05:17:18;95702.81;;;8.97;67.23
31357;BME280;60001;48.404;11.738;2023-03-25T05:18:50;95698.06;;;8.99;67.28
31357;BME280;60001;48.404;11.738;2023-03-25T05:20:21;95696.22;;;9.00;66.83
31357;BME280;60001;48.404;11.738;2023-03-25T05:21:53;95699.38;;;9.02;66.86
31357;BME280;60001;48.404;11.738;2023-03-25T05:23:26;95689.66;;;9.02;66.59
31357;BME280;60001;48.404;11.738;2023-03-25T05:25:00;95688.06;;;9.01;66.70
31357;BME280;60001;48.404;11.738;2023-03-25T05:26:34;95700.75;;;9.04;66.40
31357;BME280;60001;48.404;11.738;2023-03-25T05:28:06;95696.75;;;9.02;66.01
31357;BME280;60001;48.404;11.738;2023-03-25T05:29:39;95705.72;;;9.01;66.07
31357;BME280;60001;48.404;11.738;2023-03-25T05:31:15;95705.97;;;8.99;66.45
31357;BME280;60001;48.404;11.738;2023-03-25T05:32:47;95702.81;;;9.02;66.58
31357;BME280;60001;48.404;11.738;2023-03-25T05:34:20;95709.44;;;9.10;65.98
31357;BME280;60001;48.404;11.738;2023-03-25T05:35:52;95720.50;;;9.07;66.07
31357;BME280;60001;48.404;11.738;2023-03-25T05:37:23;95717.63;;;9.14;66.20
31357;BME280;60001;48.404;11.738;2023-03-25T05:38:55;95722.38;;;9.17;65.99
31357;BME280;60001;48.404;11.738;2023-03-25T05:40:27;95721.31;;;9.18;65.86
31357;BME280;60001;48.404;11.738;2023-03-25T05:41:58;95729.22;;;9.18;66.27
31357;BME280;60001;48.404;11.738;2023-03-25T05:43:32;95732.94;;;9.22;65.80
31357;BME280;60001;48.404;11.738;2023-03-25T05:45:06;95732.97;;;9.27;65.91
31357;BME280;60001;48.404;11.738;2023-03-25T05:46:38;95732.44;;;9.30;65.83
31357;BME280;60001;48.404;11.738;2023-03-25T05:48:10;95733.00;;;9.32;65.74
31357;BME280;60001;48.404;11.738;2023-03-25T05:49:41;95724.56;;;9.35;65.62
31357;BME280;60001;48.404;11.738;2023-03-25T05:51:14;95727.19;;;9.35;65.54
31357;BME280;60001;48.404;11.738;2023-03-25T05:52:47;95728.28;;;9.39;65.51
31357;BME280;60001;48.404;11.738;2023-03-25T05:54:21;95730.88;;;9.34;65.34
31357;BME280;60001;48.404;11.738;2023-03-25T05:55:53;95732.25;;;9.42;65.46
31357;BME280;60001;48.404;11.738;2023-03-25T05:57:25;95735.97;;;9.46;65.43
31357;BME280;60001;48.404;11.738;2023-03-25T05:58:57;95741.50;;;9.49;65.21
31357;BME280;60001;48.404;11.738;2023-03-25T06:00:29;95745.69;;;9.50;65.59
31357;BME280;60001;48.404;11.738;2023-03-25T06:02:03;95747.56;;;9.50;65.29
31357;BME280;60001;48.404;11.738;2023-03-25T06:03:36;95749.69;;;9.53;64.93
31357;BME280;60001;48.404;11.738;2023-03-25T06:05:09;95753.34;;;9.52;65.13
31357;BME280;60001;48.404;11.738;2023-03-25T06:06:43;95754.69;;;9.54;65.23
31357;BME280;60001;48.404;11.738;2023-03-25T06:08:14;95758.84;;;9.45;64.97
31357;BME280;60001;48.404;11.738;2023-03-25T06:09:47;95756.50;;;9.49;64.66
31357;BME280;60001;48.404;11.738;2023-03-25T06:11:19;95763.88;;;9.52;64.70
31357;BME280;60001;48.404;11.738;2023-03-25T06:12:51;95757.31;;;9.54;64.57
31357;BME280;60001;48.404;11.738;2023-03-25T06:14:23;95757.56;;;9.48;64.36
31357;BME280;60001;48.404;11.738;2023-03-25T06:15:55;95763.38;;;9.55;64.40
31357;BME280;60001;48.404;11.738;2023-03-25T06:17:28;95765.72;;;9.46;63.74
31357;BME280;60001;48.404;11.738;2023-03-25T06:19:02;95773.88;;;9.45;64.01
31357;BME280;60001;48.404;11.738;2023-03-25T06:20:34;95768.38;;;9.46;64.36
31357;BME280;60001;48.404;11.738;2023-03-25T06:22:07;95771.28;;;9.55;64.51
31357;BME280;60001;48.404;11.738;2023-03-25T06:23:39;95773.13;;;9.59;64.44
31357;BME280;60001;48.404;11.738;2023-03-25T06:25:12;95783.38;;;9.51;63.86
31357;BME280;60001;48.404;11.738;2023-03-25T06:26:47;95773.16;;;9.54;63.83
31357;BME280;60001;48.404;11.738;2023-03-25T06:28:18;95769.69;;;9.49;64.09
31357;BME280;60001;48.404;11.738;2023-03-25T06:29:50;95784.47;;;9.55;64.21
31357;BME280;60001;48.404;11.738;2023-03-25T06:31:24;95776.31;;;9.56;64.25
31357;BME280;60001;48.404;11.738;2023-03-25T06:32:58;95783.22;;;9.68;64.16
31357;BME280;60001;48.404;11.738;2023-03-25T06:34:32;95782.38;;;9.57;63.41
31357;BME280;60001;48.404;11.738;2023-03-25T06:36:05;95782.69;;;9.71;63.62
31357;BME280;60001;48.404;11.738;2023-03-25T06:37:38;95777.94;;;9.73;62.53
31357;BME280;60001;48.404;11.738;2023-03-25T06:39:10;95787.22;;;9.85;62.85
31357;BME280;60001;48.404;11.738;2023-03-25T06:40:43;95788.31;;;9.95;62.98
31357;BME280;60001;48.404;11.738;2023-03-25T06:42:17;95776.47;;;10.02;62.89
31357;BME280;60001;48.404;11.738;2023-03-25T06:43:48;95787.03;;;10.12;62.34
31357;BME280;60001;48.404;11.738;2023-03-25T06:45:20;95788.63;;;10.08;61.99
31357;BME280;60001;48.404;11.738;2023-03-25T06:46:53;95789.66;;;10.02;61.98
31357;BME280;60001;48.404;11.738;2023-03-25T06:48:26;95787.25;;;10.01;61.91
31357;BME280;60001;48.404;11.738;2023-03-25T06:49:57;95791.97;;;9.83;62.06
31357;BME280;60001;48.404;11.738;2023-03-25T06:51:29;95773.47;;;9.73;61.86
31357;BME280;60001;48.404;11.738;2023-03-25T06:53:01;95799.09;;;9.83;61.73
31357;BME280;60001;48.404;11.738;2023-03-25T06:54:33;95798.03;;;9.84;61.92
31357;BME280;60001;48.404;11.738;2023-03-25T06:56:06;95783.50;;;9.76;61.98
31357;BME280;60001;48.404;11.738;2023-03-25T06:57:38;95791.16;;;9.78;62.09
31357;BME280;60001;48.404;11.738;2023-03-25T06:59:11;95794.03;;;9.71;61.88
31357;BME280;60001;48.404;11.738;2023-03-25T07:00:43;95793.53;;;9.74;61.93
31357;BME280;60001;48.404;11.738;2023-03-25T07:02:16;95785.59;;;9.69;62.21
31357;BME280;60001;48.404;11.738;2023-03-25T07:03:49;95809.34;;;9.79;61.90
31357;BME280;60001;48.404;11.738;2023-03-25T07:05:21;95807.72;;;9.68;61.51
31357;BME280;60001;48.404;11.738;2023-03-25T07:06:53;95806.16;;;9.67;61.84
31357;BME280;60001;48.404;11.738;2023-03-25T07:08:25;95811.97;;;9.74;61.76
31357;BME280;60001;48.404;11.738;2023-03-25T07:09:56;95813.03;;;9.78;62.07
31357;BME280;60001;48.404;11.738;2023-03-25T07:11:29;95807.50;;;9.75;61.04
31357;BME280;60001;48.404;11.738;2023-03-25T07:13:02;95812.50;;;9.76;61.28
31357;BME280;60001;48.404;11.738;2023-03-25T07:14:34;95823.06;;;9.81;61.52
31357;BME280;60001;48.404;11.738;2023-03-25T07:16:07;95824.38;;;9.79;61.10
31357;BME280;60001;48.404;11.738;2023-03-25T07:17:40;95819.34;;;9.77;60.95
31357;BME280;60001;48.404;11.738;2023-03-25T07:19:14;95826.25;;;9.83;60.94
31357;BME280;60001;48.404;11.738;2023-03-25T07:20:46;95825.41;;;9.73;60.44
31357;BME280;60001;48.404;11.738;2023-03-25T07:22:18;95838.81;;;9.66;59.60
31357;BME280;60001;48.404;11.738;2023-03-25T07:23:50;95835.94;;;9.68;59.70
31357;BME280;60001;48.404;11.738;2023-03-25T07:25:22;95839.09;;;9.70;60.23
31357;BME280;60001;48.404;11.738;2023-03-25T07:26:54;95851.97;;;9.61;59.92
31357;BME280;60001;48.404;11.738;2023-03-25T07:28:25;95840.41;;;9.67;59.49
31357;BME280;60001;48.404;11.738;2023-03-25T07:29:57;95843.84;;;9.73;59.68
31357;BME280;60001;48.404;11.738;2023-03-25T07:31:29;95846.41;;;9.57;59.04
31357;BME280;60001;48.404;11.738;2023-03-25T07:33:01;95851.19;;;9.60;59.02
31357;BME280;60001;48.404;11.738;2023-03-25T07:34:33;95861.78;;;9.71;59.25
31357;BME280;60001;48.404;11.738;2023-03-25T07:36:08;95858.09;;;9.72;58.86
31357;BME280;60001;48.404;11.738;2023-03-25T07:37:41;95862.81;;;9.70;57.65
31357;BME280;60001;48.404;11.738;2023-03-25T07:39:13;95853.06;;;9.70;57.88
31357;BME280;60001;48.404;11.738;2023-03-25T07:40:45;95860.78;;;9.82;58.19
31357;BME280;60001;48.404;11.738;2023-03-25T07:42:16;95875.06;;;9.91;58.06
31357;BME280;60001;48.404;11.738;2023-03-25T07:43:48;95857.97;;;10.04;58.10
31357;BME280;60001;48.404;11.738;2023-03-25T07:45:20;95868.28;;;10.10;57.73
31357;BME280;60001;48.404;11.738;2023-03-25T07:46:52;95857.75;;;10.21;57.74
31357;BME280;60001;48.404;11.738;2023-03-25T07:48:24;95850.41;;;10.28;56.96
31357;BME280;60001;48.404;11.738;2023-03-25T07:49:58;95865.75;;;10.41;56.97
31357;BME280;60001;48.404;11.738;2023-03-25T07:51:30;95860.47;;;10.41;56.42
31357;BME280;60001;48.404;11.738;2023-03-25T07:53:04;95854.97;;;10.58;55.58
31357;BME280;60001;48.404;11.738;2023-03-25T07:54:36;95863.59;;;10.28;55.01
31357;BME280;60001;48.404;11.738;2023-03-25T07:56:08;95861.78;;;10.38;55.60
31357;BME280;60001;48.404;11.738;2023-03-25T07:57:40;95856.47;;;10.28;56.53
31357;BME280;60001;48.404;11.738;2023-03-25T07:59:12;95865.50;;;10.48;56.63
31357;BME280;60001;48.404;11.738;2023-03-25T08:00:44;95856.78;;;10.47;57.58
31357;BME280;60001;48.404;11.738;2023-03-25T08:02:16;95866.03;;;10.50;57.87
31357;BME280;60001;48.404;11.738;2023-03-25T08:03:48;95872.34;;;10.49;56.90
31357;BME280;60001;48.404;11.738;2023-03-25T08:05:21;95869.47;;;10.50;56.64
31357;BME280;60001;48.404;11.738;2023-03-25T08:06:53;95869.72;;;10.49;57.06
31357;BME280;60001;48.404;11.738;2023-03-25T08:08:25;95867.63;;;10.46;57.06
31357;BME280;60001;48.404;11.738;2023-03-25T08:09:59;95860.47;;;10.41;56.87
31357;BME280;60001;48.404;11.738;2023-03-25T08:11:31;95862.06;;;10.37;56.33
31357;BME280;60001;48.404;11.738;2023-03-25T08:13:02;95863.38;;;10.50;57.41
31357;BME280;60001;48.404;11.738;2023-03-25T08:14:34;95865.78;;;10.56;56.67
31357;BME280;60001;48.404;11.738;2023-03-25T08:16:09;95864.22;;;10.70;57.11
31357;BME280;60001;48.404;11.738;2023-03-25T08:17:41;95863.94;;;10.67;56.31
31357;BME280;60001;48.404;11.738;2023-03-25T08:19:13;95866.84;;;10.70;56.64
31357;BME280;60001;48.404;11.738;2023-03-25T08:20:47;95859.22;;;10.79;56.92
31357;BME280;60001;48.404;11.738;2023-03-25T08:22:19;95873.75;;;11.07;56.94
31357;BME280;60001;48.404;11.738;2023-03-25T08:23:51;95862.09;;;11.39;56.70
31357;BME280;60001;48.404;11.738;2023-03-25T08:25:28;95858.09;;;11.57;54.70
31357;BME280;60001;48.404;11.738;2023-03-25T08:27:00;95869.69;;;11.76;54.80